createdAt,value
2022-10-24T00:01:22.444Z,100351.03
2022-10-24T00:03:49.701Z,100353.88
2022-10-24T00:06:18.918Z,100353.88
2022-10-24T00:08:46.453Z,100358.28
2022-10-24T00:11:24.881Z,100357.50
2022-10-24T00:13:53.365Z,100354.97
2022-10-24T00:16:20.503Z,100360.25
2022-10-24T00:18:48.047Z,100356.59
2022-10-24T00:21:15.342Z,100358.84
2022-10-24T00:23:42.380Z,100361.28
2022-10-24T00:26:10.726Z,100364.72
2022-10-24T00:28:38.357Z,100355.94
2022-10-24T00:31:08.223Z,100369.72
2022-10-24T00:33:35.469Z,100370.25
2022-10-24T00:36:02.410Z,100359.84
2022-10-24T00:38:29.481Z,100372.25
2022-10-24T00:40:56.445Z,100376.50
2022-10-24T00:43:26.471Z,100359.78
2022-10-24T00:45:59.533Z,100364.38
2022-10-24T00:48:44.297Z,100359.84
2022-10-24T00:51:27.772Z,100357.13
2022-10-24T00:54:04.953Z,100351.88
2022-10-24T00:56:37.723Z,100344.69
2022-10-24T00:59:08.699Z,100331.47
2022-10-24T01:01:36.680Z,100333.00
2022-10-24T01:04:04.088Z,100334.63
2022-10-24T01:06:48.504Z,100336.59
2022-10-24T01:09:45.381Z,100331.53
2022-10-24T01:12:33.524Z,100328.16
2022-10-24T01:15:18.634Z,100333.56
2022-10-24T01:18:03.471Z,100325.41
2022-10-24T01:21:24.793Z,100327.34
2022-10-24T01:24:36.383Z,100318.34
2022-10-24T01:27:33.914Z,100311.28
2022-10-24T01:30:11.469Z,100307.50
2022-10-24T01:32:45.596Z,100296.88
2022-10-24T01:35:47.611Z,100303.16
2022-10-24T01:38:28.495Z,100291.66
2022-10-24T01:41:21.231Z,100297.00
2022-10-24T01:44:03.168Z,100297.97
2022-10-24T01:46:37.497Z,100298.72
2022-10-24T01:49:19.179Z,100296.06
2022-10-24T01:51:52.384Z,100298.69
2022-10-24T01:54:20.171Z,100289.94
2022-10-24T01:56:47.295Z,100288.28
2022-10-24T01:59:26.114Z,100292.47
2022-10-24T02:02:22.514Z,100280.19
2022-10-24T02:04:58.960Z,100265.19
2022-10-24T02:07:28.737Z,100255.41
2022-10-24T02:10:05.732Z,100248.16
2022-10-24T02:12:33.562Z,100242.63
2022-10-24T02:15:12.813Z,100236.50
2022-10-24T02:17:39.926Z,100241.91
2022-10-24T02:20:08.242Z,100240.63
2022-10-24T02:22:57.059Z,100245.81
2022-10-24T02:25:37.115Z,100238.00
2022-10-24T02:28:21.553Z,100238.09
2022-10-24T02:31:24.796Z,100236.09
2022-10-24T02:36:47.609Z,100250.88
2022-10-24T02:39:25.706Z,100220.25
2022-10-24T02:42:01.216Z,100235.63
2022-10-24T02:44:32.737Z,100246.94
2022-10-24T02:47:05.751Z,100249.59
2022-10-24T02:49:37.498Z,100253.13
2022-10-24T02:52:08.569Z,100246.06
2022-10-24T02:54:38.706Z,100252.06
2022-10-24T03:00:17.511Z,100221.72
2022-10-24T03:03:21.228Z,100235.22
2022-10-24T03:05:57.901Z,100218.16
2022-10-24T03:08:41.488Z,100218.16
2022-10-24T03:11:23.228Z,100211.13
2022-10-24T03:13:55.890Z,100217.53
2022-10-24T03:16:48.795Z,100215.69
2022-10-24T03:19:23.777Z,100219.22
2022-10-24T03:22:29.830Z,100222.97
2022-10-24T03:25:16.140Z,100220.19
2022-10-24T03:27:51.378Z,100201.53
2022-10-24T03:30:31.447Z,100206.41
2022-10-24T03:33:21.530Z,100219.81
2022-10-24T03:35:58.443Z,100208.00
2022-10-24T03:38:29.252Z,100223.09
2022-10-24T03:40:57.191Z,100217.84
2022-10-24T03:43:42.520Z,100209.19
2022-10-24T03:46:13.255Z,100196.25
2022-10-24T03:48:44.715Z,100212.34
2022-10-24T03:51:15.891Z,100194.78
2022-10-24T03:53:49.710Z,100201.16
2022-10-24T03:56:25.315Z,100194.00
2022-10-24T03:59:02.652Z,100207.44
2022-10-24T04:01:34.471Z,100186.84
2022-10-24T04:04:20.387Z,100190.47
2022-10-24T04:06:48.014Z,100189.75
2022-10-24T04:09:27.969Z,100175.56
2022-10-24T04:14:39.395Z,100187.75
2022-10-24T04:17:59.098Z,100176.53
2022-10-24T04:20:48.626Z,100166.22
2022-10-24T04:24:21.422Z,100165.25
2022-10-24T04:27:31.876Z,100168.88
2022-10-24T04:31:10.618Z,100171.56
2022-10-24T04:37:29.597Z,100147.63
2022-10-24T04:41:09.764Z,100138.97
2022-10-24T04:44:09.737Z,100122.34
2022-10-24T04:47:34.473Z,100117.19
2022-10-24T04:59:57.385Z,100119.38
2022-10-24T05:02:59.473Z,100103.56
2022-10-24T05:07:06.612Z,100102.00
2022-10-24T05:13:06.305Z,100087.13
2022-10-24T05:22:56.241Z,100096.09
2022-10-24T05:25:54.598Z,100096.91
2022-10-24T05:28:35.717Z,100085.69
2022-10-24T05:31:20.141Z,100080.25
2022-10-24T05:35:12.589Z,100082.69
2022-10-24T05:37:18.666Z,100100.69
2022-10-24T05:40:04.840Z,100118.72
2022-10-24T05:49:03.047Z,100111.16
2022-10-24T05:51:32.983Z,100096.94
2022-10-24T05:54:00.899Z,100116.09
2022-10-24T05:56:32.798Z,100094.81
2022-10-24T05:59:09.911Z,100092.78
2022-10-24T06:01:53.137Z,100091.13
2022-10-24T06:04:37.875Z,100122.66
2022-10-24T06:07:28.414Z,100112.94
2022-10-24T06:10:51.781Z,100118.38
2022-10-24T06:13:57.948Z,100129.94
2022-10-24T06:16:56.706Z,100112.25
2022-10-24T06:20:42.501Z,100119.88
2022-10-24T06:23:44.267Z,100121.91
2022-10-24T06:26:29.033Z,100114.41
2022-10-24T06:28:59.455Z,100114.31
2022-10-24T06:32:02.984Z,100111.84
2022-10-24T06:41:36.765Z,100093.31
2022-10-24T06:44:55.353Z,100104.22
2022-10-24T06:48:47.360Z,100121.69
2022-10-24T06:51:41.416Z,100124.13
2022-10-24T06:55:08.107Z,100141.31
2022-10-24T07:05:39.903Z,100172.56
2022-10-24T07:29:06.892Z,100174.47
2022-10-24T07:33:51.145Z,100195.75
2022-10-24T08:29:39.336Z,100125.53
2022-10-24T08:34:26.274Z,100117.53
2022-10-24T08:51:05.023Z,100143.03
2022-10-24T09:01:31.124Z,100116.69
2022-10-24T09:04:31.419Z,100116.75
2022-10-24T09:07:30.128Z,100131.13
2022-10-24T09:10:44.766Z,100136.28
2022-10-24T09:13:56.350Z,100121.50
2022-10-24T09:16:36.203Z,100119.44
2022-10-24T09:21:36.609Z,100123.66
2022-10-24T09:23:46.189Z,100132.25
2022-10-24T09:41:55.290Z,100131.16
2022-10-24T09:44:49.328Z,100110.44
2022-10-24T09:48:55.448Z,100115.84
2022-10-24T09:59:18.633Z,100103.97
2022-10-24T12:45:36.212Z,100026.41
2022-10-24T12:48:03.025Z,100030.81
2022-10-24T12:50:29.826Z,100027.34
2022-10-24T12:52:56.635Z,100025.56
2022-10-24T12:55:39.769Z,100030.88
2022-10-24T12:58:32.076Z,100022.13
2022-10-24T13:01:02.030Z,100011.25
2022-10-24T13:03:37.491Z,100013.13
2022-10-24T13:06:15.175Z,100005.19
2022-10-24T13:09:34.110Z,100006.94
2022-10-24T13:12:12.700Z,100014.13
2022-10-24T13:15:26.826Z,100012.25
2022-10-24T13:18:05.805Z,100017.72
2022-10-24T13:20:43.982Z,100018.66
2022-10-24T13:23:23.413Z,100020.41
2022-10-24T13:25:57.381Z,100007.94
2022-10-24T13:28:24.175Z,100015.88
2022-10-24T13:30:59.849Z,100017.56
2022-10-24T13:33:29.488Z,100019.38
2022-10-24T13:36:28.206Z,100024.81
2022-10-24T13:39:04.074Z,100020.38
2022-10-24T13:41:41.726Z,100015.06
2022-10-24T13:44:32.804Z,100019.53
2022-10-24T13:47:11.373Z,100007.97
2022-10-24T13:49:57.905Z,100007.06
2022-10-24T13:52:32.788Z,100002.63
2022-10-24T13:55:48.057Z,100011.53
2022-10-24T13:58:25.118Z,100011.50
2022-10-24T14:01:04.816Z,100013.28
2022-10-24T14:03:34.668Z,100011.56
2022-10-24T14:06:08.479Z,100011.56
2022-10-24T14:09:05.823Z,100005.28
2022-10-24T14:11:35.346Z,100006.16
2022-10-24T14:14:06.041Z,100003.47
2022-10-24T14:16:35.797Z,100004.41
2022-10-24T14:19:28.300Z,99996.44
2022-10-24T14:21:58.181Z,99993.75
2022-10-24T14:24:25.759Z,100007.13
2022-10-24T14:26:56.895Z,100010.69
2022-10-24T14:29:32.438Z,100004.47
2022-10-24T14:32:08.160Z,100008.91
2022-10-24T14:34:37.463Z,100016.00
2022-10-24T14:37:30.515Z,100013.34
2022-10-24T14:39:58.900Z,100015.13
2022-10-24T14:42:26.562Z,100015.13
2022-10-24T14:44:58.308Z,100016.88
2022-10-24T14:47:32.838Z,100016.81
2022-10-24T14:50:00.371Z,100023.03
2022-10-24T14:52:39.030Z,100018.56
2022-10-24T14:55:21.806Z,100015.00
2022-10-24T14:57:52.162Z,100018.53
2022-10-24T15:00:35.118Z,100014.06
2022-10-24T15:03:02.480Z,100020.25
2022-10-24T15:05:36.270Z,100023.81
2022-10-24T15:08:27.691Z,100023.72
2022-10-24T15:11:22.031Z,100029.09
2022-10-24T15:14:06.735Z,100022.84
2022-10-24T15:16:39.808Z,100028.09
2022-10-24T15:19:15.371Z,100020.97
2022-10-24T15:21:44.774Z,100023.66
2022-10-24T15:24:25.073Z,100019.13
2022-10-24T15:26:52.746Z,100015.50
2022-10-24T15:29:23.169Z,100023.50
2022-10-24T15:31:51.666Z,100022.50
2022-10-24T15:34:23.682Z,100011.78
2022-10-24T15:36:52.843Z,100010.88
2022-10-24T15:39:24.640Z,100017.06
2022-10-24T15:41:52.870Z,100013.50
2022-10-24T15:44:31.186Z,100017.91
2022-10-24T15:46:58.160Z,100019.63
2022-10-24T15:49:25.157Z,100025.88
2022-10-24T15:51:52.312Z,100027.63
2022-10-24T15:54:22.274Z,100031.13
2022-10-24T15:56:50.051Z,100029.28
2022-10-24T15:59:18.571Z,100023.97
2022-10-24T16:01:51.609Z,100030.13
2022-10-24T16:04:20.174Z,100026.59
2022-10-24T16:06:47.948Z,100030.06
2022-10-24T16:09:21.798Z,100030.91
2022-10-24T16:11:49.497Z,100026.50
2022-10-24T16:14:19.981Z,100027.34
2022-10-24T16:16:47.766Z,100019.47
2022-10-24T16:19:14.835Z,100022.09
2022-10-24T16:21:43.136Z,100010.50
2022-10-24T16:24:12.567Z,100015.00
2022-10-24T16:26:39.794Z,100019.41
2022-10-24T16:29:06.873Z,100019.41
2022-10-24T16:31:34.117Z,100017.59
2022-10-24T16:34:01.324Z,100021.97
2022-10-24T16:36:29.065Z,100022.88
2022-10-24T16:38:57.046Z,100034.34
2022-10-24T16:41:25.723Z,100029.88
2022-10-24T16:43:57.527Z,100036.00
2022-10-24T16:46:27.567Z,100027.97
2022-10-24T16:48:55.373Z,100020.88
2022-10-24T16:51:32.736Z,100023.47
2022-10-24T16:54:02.070Z,100032.34
2022-10-24T16:56:30.159Z,100023.44
2022-10-24T16:58:57.698Z,100027.00
2022-10-24T17:01:27.280Z,100023.34
2022-10-24T17:03:54.407Z,100025.09
2022-10-24T17:06:21.315Z,100025.09
2022-10-24T17:08:48.235Z,100026.75
2022-10-24T17:11:43.414Z,100024.91
2022-10-24T17:14:02.140Z,100032.94
2022-10-24T17:16:29.825Z,100033.91
2022-10-24T17:19:12.192Z,100033.81
2022-10-24T17:21:42.930Z,100040.03
2022-10-24T17:24:12.090Z,100036.34
2022-10-24T17:26:39.978Z,100043.44
2022-10-24T17:29:08.501Z,100035.41
2022-10-24T17:31:36.101Z,100030.97
2022-10-24T17:34:03.657Z,100036.28
2022-10-24T17:36:36.876Z,100026.50
2022-10-24T17:39:31.435Z,100023.00
2022-10-24T17:41:58.628Z,100019.47
2022-10-24T17:44:25.986Z,100021.16
2022-10-24T17:46:56.015Z,100020.34
2022-10-24T17:49:25.752Z,100015.84
2022-10-24T17:51:52.740Z,100019.41
2022-10-24T17:54:19.729Z,100016.00
2022-10-24T17:56:46.792Z,100015.91
2022-10-24T17:59:14.710Z,100012.38
2022-10-24T18:01:42.598Z,100018.00
2022-10-24T18:04:09.718Z,100015.28
2022-10-24T18:06:42.117Z,100020.75
2022-10-24T18:09:10.078Z,100025.25
2022-10-24T18:11:37.337Z,100026.28
2022-10-24T18:14:04.401Z,100029.03
2022-10-24T18:16:31.405Z,100029.06
2022-10-24T18:18:58.401Z,100036.06
2022-10-24T18:21:27.312Z,100020.13
2022-10-24T18:23:55.719Z,100035.97
2022-10-24T18:26:25.915Z,100023.63
2022-10-24T18:28:55.264Z,100020.03
2022-10-24T18:31:28.992Z,100022.59
2022-10-24T18:34:02.497Z,100015.50
2022-10-24T18:36:33.178Z,100020.19
2022-10-24T18:39:01.437Z,100024.63
2022-10-24T18:41:31.657Z,100021.81
2022-10-24T18:44:01.917Z,100014.91
2022-10-24T18:46:30.205Z,100005.00
2022-10-24T18:48:57.574Z,100011.19
2022-10-24T18:51:42.123Z,100003.22
2022-10-24T18:54:16.943Z,100003.22
2022-10-24T18:56:44.024Z,99998.91
2022-10-24T18:59:17.779Z,99999.72
2022-10-24T19:01:59.483Z,99999.78
2022-10-24T19:04:27.197Z,99999.81
2022-10-24T19:06:59.267Z,100004.44
2022-10-24T19:09:26.994Z,100001.59
2022-10-24T19:11:54.111Z,99994.53
2022-10-24T19:14:21.323Z,99998.03
2022-10-24T19:16:50.785Z,99996.19
2022-10-24T19:19:28.082Z,99992.66
2022-10-24T19:21:55.203Z,99982.00
2022-10-24T19:24:22.551Z,99986.25
2022-10-24T19:26:49.963Z,99985.47
2022-10-24T19:29:17.072Z,99978.59
2022-10-24T19:31:44.097Z,99976.81
2022-10-24T19:34:11.259Z,99975.03
2022-10-24T19:36:39.196Z,99970.53
2022-10-24T19:39:06.710Z,99973.97
2022-10-24T19:41:33.857Z,99974.09
2022-10-24T19:44:00.857Z,99973.19
2022-10-24T19:46:28.211Z,99972.28
2022-10-24T19:48:55.322Z,99964.31
2022-10-24T19:51:23.316Z,99958.97
2022-10-24T19:53:52.341Z,99971.44
2022-10-24T19:56:28.694Z,99971.50
2022-10-24T19:58:56.178Z,99966.16
2022-10-24T20:01:29.826Z,99976.91
2022-10-24T20:03:57.195Z,99971.50
2022-10-24T20:06:27.377Z,99974.84
2022-10-24T20:08:54.512Z,99975.09
2022-10-24T20:11:21.639Z,99979.53
2022-10-24T20:13:50.411Z,99983.97
2022-10-24T20:16:17.973Z,99974.19
2022-10-24T20:18:44.973Z,99967.16
2022-10-24T20:21:17.122Z,99971.59
2022-10-24T20:23:48.127Z,99979.47
2022-10-24T20:26:19.672Z,99986.69
2022-10-24T20:28:50.928Z,99984.81
2022-10-24T20:31:39.615Z,99977.72
2022-10-24T20:34:11.124Z,99986.56
2022-10-24T20:36:41.655Z,99984.69
2022-10-24T20:39:09.235Z,99984.78
2022-10-24T20:41:37.050Z,99990.13
2022-10-24T20:44:04.889Z,99983.06
2022-10-24T20:46:31.827Z,99990.19
2022-10-24T20:48:58.780Z,99989.22
2022-10-24T20:51:25.806Z,99983.00
2022-10-24T20:53:52.830Z,99985.56
2022-10-24T20:56:26.044Z,99984.75
2022-10-24T20:58:54.898Z,99981.22
2022-10-24T21:01:25.256Z,99984.06
2022-10-24T21:03:53.400Z,99991.00
2022-10-24T21:06:24.910Z,99987.53
2022-10-24T21:08:55.237Z,99988.47
2022-10-24T21:11:25.971Z,99985.72
2022-10-24T21:13:58.582Z,99984.97
2022-10-24T21:16:26.329Z,99979.69
2022-10-24T21:18:53.932Z,99979.59
2022-10-24T21:21:22.384Z,99992.00
2022-10-24T21:23:54.721Z,99986.84
2022-10-24T21:26:22.242Z,99995.72
2022-10-24T21:28:49.900Z,99996.63
2022-10-24T21:31:19.610Z,99995.81
2022-10-24T21:33:47.510Z,99992.19
2022-10-24T21:36:25.622Z,99998.47
2022-10-24T21:38:57.165Z,99999.28
2022-10-24T21:41:26.300Z,99998.38
2022-10-24T21:43:54.260Z,99998.47
2022-10-24T21:46:26.939Z,100007.34
2022-10-24T21:48:55.069Z,100010.84
2022-10-24T21:51:35.355Z,100014.44
2022-10-24T21:54:14.966Z,100012.53
2022-10-24T21:56:41.971Z,100024.13
2022-10-24T21:59:14.830Z,100013.47
2022-10-24T22:01:42.882Z,100024.09
2022-10-24T22:04:12.103Z,100025.78
2022-10-24T22:06:39.960Z,100020.69
2022-10-24T22:09:09.789Z,100024.13
2022-10-24T22:11:37.541Z,100031.09
2022-10-24T22:14:06.121Z,100031.06
2022-10-24T22:16:33.733Z,100019.53
2022-10-24T22:19:05.492Z,100023.00
2022-10-24T22:21:46.879Z,100023.13
2022-10-24T22:24:18.519Z,100027.53
2022-10-24T22:26:46.239Z,100028.44
2022-10-24T22:29:20.033Z,100026.06
2022-10-24T22:31:47.962Z,100041.00
2022-10-24T22:34:24.487Z,100050.72
2022-10-24T22:37:29.844Z,100056.66
2022-10-24T22:39:57.132Z,100054.84
2022-10-24T22:42:24.292Z,100047.72
2022-10-24T22:44:51.584Z,100046.91
2022-10-24T22:47:49.501Z,100039.78
2022-10-24T22:50:53.616Z,100050.34
2022-10-24T22:53:27.584Z,100053.00
2022-10-24T22:55:54.413Z,100054.84
2022-10-24T22:58:22.043Z,100052.94
2022-10-24T23:01:00.503Z,100052.13
2022-10-24T23:03:59.309Z,100060.00
2022-10-24T23:06:51.631Z,100050.28
2022-10-24T23:09:18.556Z,100055.75
2022-10-24T23:11:45.871Z,100056.53
2022-10-24T23:14:13.683Z,100049.38
2022-10-24T23:16:58.851Z,100048.50
2022-10-24T23:19:29.482Z,100058.31
2022-10-24T23:22:25.105Z,100056.56
2022-10-24T23:24:55.745Z,100056.63
2022-10-24T23:27:38.404Z,100057.34
2022-10-24T23:30:20.191Z,100063.50
2022-10-24T23:32:49.035Z,100056.31
2022-10-24T23:35:19.313Z,100060.81
2022-10-24T23:37:50.103Z,100067.94
2022-10-24T23:40:29.261Z,100068.84
2022-10-24T23:42:57.335Z,100069.81
2022-10-24T23:45:28.152Z,100073.25
2022-10-24T23:48:39.832Z,100069.63
2022-10-24T23:51:26.591Z,100071.47
2022-10-24T23:53:55.600Z,100068.75
2022-10-24T23:56:28.594Z,100069.69
2022-10-24T23:58:56.212Z,100071.47
